Troy, AL

2:41 PM CDT on March 23, 2017 (GMT -0500)
Troy- Goshen suburbs | | Change Station

Elev 341 ft 31.80 °N, 86.07 °W | Updated 20 seconds ago

Overcast
Overcast
75.7 °F
Feels Like 78 °F
N
4.7
Wind Variable Wind from SE

Today
High -- | Low -- °F
--% Chance of Precip.
Yesterday
High -- | Low -- °F
Precip. -- in
Pressure 30.30 in
Visibility 10.0 miles
Clouds Mostly Cloudy 3600 ft
Heat Index 78 °F
Dew Point 60 °F
Humidity 58%
Rainfall 0.00 in
Snow Depth Not available.
6:43 AM 6:57 PM
Waning Crescent, 21% visible
METAR KTOI 231853Z AUTO 11013KT 10SM BKN036 22/13 A3030 RMK AO2 SLP258 T02220133
Pressure 30.30 in
Visibility 10.0 miles
Clouds Mostly Cloudy 3600 ft
Heat Index 78 °F
Dew Point 60 °F
Humidity 58%
Rainfall 0.00 in
Snow Depth Not available.
6:43 AM 6:57 PM
Waning Crescent, 21% visible
METAR KTOI 231853Z AUTO 11013KT 10SM BKN036 22/13 A3030 RMK AO2 SLP258 T02220133

Get Severe Weather Alerts

Thanks for signing up!

Be on the lookout for a verification email in your inbox.

You'll start receiving the daily forecast at 8 AM.

×

10-Day Weather Forecast

Almanac

Astronomy

Mar. 23, 2017 Rise Set
Actual Time
Civil Twilight
Nautical Twilight
Astronomical Twilight
Moon
Length of Visible Light
Length of Day
Tomorrow will be .
, % of the Moon is Illuminated

Today's Extremes

State Highs State Lows

Community

WunderPhotos

Upload Photos

1,962,540 photos uploaded!

WunderBlog® & News

Nearby

Air Quality

  Air Quality AQ Index Pollutant
Not available.

Snow Depth

Station Depth Elevation

Earthquake Activity

City Distance Mag. Time & Date
Minimum magnitude displayed is 2.5.

Earthquake Activity

City Distance Mag. Time & Date
Minimum magnitude displayed is 2.5.

Coastal Water Temperatures

Place Temperature

Stations

Nearby Weather Stations

Station Location Temp. Windchill Dew Point Humidity Wind Precip. Elev Updated Type
                   

Watches & Warnings

There are currently no watches in effect.